Time;durP1;ratioP1;P1;durP2;ratioP2;P2;SDS_P1;SDS_P2;PMS_P1;PMS_P2;Temp;Humidity;BMP_temperature;BMP_pressure;BME280_temperature;BME280_humidity;BME280_pressure;Samples;Min_cycle;Max_cycle;Signal;HPM_P1;HPM_P2
2022/09/04 00:00:12;;;;;;;11.53;10.63;;;15.40;99.90;;;16.35;87.00;97941.13;4970428;28;20543;-74
2022/09/04 00:03:08;;;;;;;10.47;9.57;;;15.30;99.90;;;16.56;86.51;97943.00;4962890;28;20948;-76
2022/09/04 00:05:45;;;;;;;10.67;9.50;;;15.30;99.90;;;16.38;86.41;97908.72;4948301;28;20492;-75
2022/09/04 00:08:45;;;;;;;9.50;8.70;;;15.40;99.90;;;16.97;84.05;97948.03;4966137;28;20451;-75
2022/09/04 00:11:30;;;;;;;9.83;8.93;;;15.70;99.90;;;17.21;82.72;97950.47;4965625;28;20533;-75
2022/09/04 00:14:01;;;;;;;8.33;7.70;;;15.90;99.90;;;17.05;82.15;97929.56;4970397;28;20471;-74
2022/09/04 00:16:41;;;;;;;10.10;9.30;;;15.90;99.90;;;16.99;82.72;97954.09;4968246;28;20459;-74
2022/09/04 00:19:16;;;;;;;8.20;7.50;;;15.90;99.90;;;16.85;83.89;97950.09;4970776;28;20870;-76
2022/09/04 00:21:52;;;;;;;8.63;8.00;;;15.80;99.90;;;16.52;84.28;97935.59;4968497;28;20545;-74
2022/09/04 00:24:23;;;;;;;9.87;9.07;;;15.70;99.90;;;16.80;83.73;97955.50;4983869;28;20450;-75
2022/09/04 00:26:58;;;;;;;9.93;9.03;;;15.70;99.90;;;16.50;84.31;97954.91;4958640;28;20479;-75
2022/09/04 00:29:42;;;;;;;9.83;9.13;;;15.50;99.90;;;16.38;84.64;97957.78;4971929;28;21256;-74
2022/09/04 00:32:20;;;;;;;9.93;9.13;;;15.40;99.90;;;16.38;84.90;97962.44;4958732;28;20465;-75
2022/09/04 00:35:06;;;;;;;9.73;8.93;;;15.40;99.90;;;16.27;85.44;97956.84;4962448;28;20467;-74
2022/09/04 00:37:39;;;;;;;12.50;11.50;;;15.30;99.90;;;16.07;85.32;97943.78;4976490;28;20466;-73
2022/09/04 00:40:13;;;;;;;12.87;11.77;;;15.20;99.90;;;16.04;86.05;97957.94;4980007;28;20466;-75
2022/09/04 00:43:06;;;;;;;12.90;11.83;;;15.10;99.90;;;15.99;86.17;97969.59;4963068;28;20459;-75
2022/09/04 00:45:50;;;;;;;10.90;9.90;;;15.00;99.90;;;16.02;86.16;97968.25;4963720;28;20485;-74
2022/09/04 00:49:19;;;;;;;9.40;8.60;;;14.90;99.90;;;16.03;86.22;97978.09;4942432;28;20467;-73
2022/09/04 00:51:58;;;;;;;10.70;9.80;;;15.00;99.90;;;16.19;85.79;97981.00;4943874;28;20467;-74
2022/09/04 00:54:49;;;;;;;10.13;9.03;;;15.00;99.90;;;16.29;85.02;97972.94;4975552;28;20461;-75
2022/09/04 00:57:49;;;;;;;10.60;9.80;;;15.00;99.90;;;16.13;85.73;97996.47;4953655;28;20469;-75
2022/09/04 01:00:19;;;;;;;10.53;9.63;;;15.00;99.90;;;15.81;86.76;97992.44;4979795;28;20471;-75
2022/09/04 01:03:11;;;;;;;10.67;9.67;;;14.90;99.90;;;15.78;86.70;97997.59;4973500;28;20996;-77
2022/09/04 01:05:55;;;;;;;12.33;11.13;;;14.80;99.90;;;15.63;86.05;97981.84;4990821;28;20469;-77
2022/09/04 01:08:39;;;;;;;13.10;11.33;;;14.70;99.90;;;15.61;86.48;97992.16;4961976;28;20501;-77
2022/09/04 01:11:15;;;;;;;11.67;10.63;;;14.60;99.90;;;15.49;87.64;97990.34;4979431;28;20453;-77
2022/09/04 01:13:49;;;;;;;10.03;9.10;;;14.50;99.90;;;15.43;87.07;97989.44;4971399;28;20470;-77
2022/09/04 01:16:24;;;;;;;10.93;9.93;;;14.50;99.90;;;15.41;87.63;97999.75;4978576;28;20541;-76
2022/09/04 01:18:57;;;;;;;11.10;10.20;;;14.40;99.90;;;15.24;87.85;97999.75;4976736;28;20517;-76
2022/09/04 01:21:59;;;;;;;11.97;10.97;;;14.30;99.90;;;15.07;88.77;97999.72;4991349;28;20471;-77
2022/09/04 01:24:54;;;;;;;10.80;9.90;;;14.20;99.90;;;15.19;88.32;97996.94;4963213;28;20465;-77
2022/09/04 01:27:27;;;;;;;11.23;10.33;;;14.20;99.90;;;15.27;87.78;98009.31;4961071;28;20481;-76
2022/09/04 01:30:05;;;;;;;11.50;10.60;;;14.20;99.90;;;15.11;88.74;98005.50;4968799;28;20795;-79
2022/09/04 01:32:45;;;;;;;11.20;10.10;;;14.10;99.90;;;15.19;87.77;98012.44;4965515;28;20456;-76
2022/09/04 01:35:26;;;;;;;9.60;8.80;;;14.10;99.90;;;15.12;87.70;98007.16;4966312;28;20459;-76
2022/09/04 01:38:06;;;;;;;11.67;10.60;;;14.00;99.90;;;15.07;88.02;98007.91;4963217;28;20497;-76
2022/09/04 01:40:44;;;;;;;10.80;9.93;;;14.00;99.90;;;14.90;89.36;98016.00;4966360;28;20468;-77
2022/09/04 01:43:17;;;;;;;10.00;9.20;;;14.00;99.90;;;15.07;89.84;98004.34;4964216;28;20449;-76
2022/09/04 01:46:24;;;;;;;11.70;10.80;;;14.00;99.90;;;15.01;89.55;98011.56;4963703;28;20460;-76
2022/09/04 01:49:01;;;;;;;10.73;9.83;;;14.10;99.90;;;15.02;89.35;98014.06;4962674;28;21044;-77
2022/09/04 01:51:40;;;;;;;10.40;9.50;;;14.00;99.90;;;14.88;90.05;98010.00;4958013;28;20469;-76
2022/09/04 01:54:23;;;;;;;11.90;10.90;;;14.00;99.90;;;14.77;89.31;97989.09;4963778;28;20443;-76
2022/09/04 01:57:06;;;;;;;11.70;10.70;;;14.00;99.90;;;14.94;89.45;98006.31;4963438;28;20901;-77
2022/09/04 01:59:49;;;;;;;12.10;11.03;;;14.00;99.90;;;14.80;90.26;98013.94;4970335;28;20472;-75
2022/09/04 02:02:26;;;;;;;11.20;10.20;;;14.00;99.90;;;14.81;89.65;98007.41;4966084;28;20465;-76
2022/09/04 02:05:02;;;;;;;12.50;11.30;;;14.00;99.90;;;14.79;90.24;98015.00;4962447;28;20468;-76
2022/09/04 02:07:36;;;;;;;12.03;10.67;;;13.90;99.90;;;14.89;89.88;98021.72;4966006;28;20499;-75
2022/09/04 02:10:22;;;;;;;11.80;10.80;;;14.00;99.90;;;14.81;89.94;98022.94;4964151;28;20464;-76
2022/09/04 02:12:59;;;;;;;11.33;10.33;;;14.00;99.90;;;14.44;89.86;97948.78;4971220;28;20465;-75
2022/09/04 02:15:38;;;;;;;11.07;10.20;;;13.90;99.90;;;14.77;89.53;98000.81;4966970;28;20823;-76
2022/09/04 02:18:14;;;;;;;10.60;9.50;;;13.90;99.90;;;14.93;89.65;98006.53;4968881;28;20493;-76
2022/09/04 02:20:54;;;;;;;11.03;10.13;;;14.00;99.90;;;15.06;89.10;98003.53;4972534;28;20528;-77
2022/09/04 02:23:31;;;;;;;9.93;9.10;;;14.00;99.90;;;15.21;88.60;98002.13;4969917;28;20472;-75
2022/09/04 02:26:10;;;;;;;12.40;11.33;;;14.00;99.90;;;15.18;88.36;98008.06;4972388;28;20457;-76
2022/09/04 02:28:54;;;;;;;11.30;10.30;;;14.10;99.90;;;15.39;88.63;98011.94;4953732;28;21008;-76
2022/09/04 02:31:33;;;;;;;9.33;8.60;;;14.20;99.90;;;15.19;87.93;98012.44;4968791;28;20461;-75
2022/09/04 02:34:08;;;;;;;12.00;9.60;;;14.20;99.90;;;14.98;88.15;98012.91;4953437;28;20497;-74
2022/09/04 02:36:43;;;;;;;8.90;8.20;;;14.10;99.90;;;14.69;88.33;97928.59;4982820;28;20455;-73
2022/09/04 02:39:29;;;;;;;8.70;7.80;;;14.20;99.90;;;15.50;86.50;98016.50;4973486;28;20495;-75
2022/09/04 02:42:12;;;;;;;9.00;8.30;;;14.50;99.90;;;15.09;87.57;98016.63;4978094;28;20462;-75
2022/09/04 02:44:47;;;;;;;11.03;10.13;;;14.30;99.90;;;15.00;86.93;98001.75;4978557;28;20468;-73
2022/09/04 02:47:29;;;;;;;10.07;9.27;;;14.20;99.90;;;15.06;86.94;98019.84;4977144;28;20498;-74
2022/09/04 02:50:07;;;;;;;10.00;9.20;;;14.10;99.90;;;14.77;87.42;98010.84;4960074;28;20471;-74
2022/09/04 02:53:02;;;;;;;9.77;8.97;;;14.00;99.90;;;14.84;87.80;98031.41;4973505;28;20872;-73
2022/09/04 02:55:49;;;;;;;10.80;9.90;;;13.90;99.90;;;14.75;87.62;98016.56;4975290;28;20467;-73
2022/09/04 02:58:32;;;;;;;10.23;9.43;;;13.80;99.90;;;14.72;87.14;98025.22;4979967;28;20486;-73
2022/09/04 03:01:08;;;;;;;10.27;9.47;;;13.80;99.90;;;14.48;88.41;98019.81;4990926;28;20487;-75
2022/09/04 03:03:44;;;;;;;11.40;10.40;;;13.70;99.90;;;14.54;89.01;98018.84;4987219;28;20464;-75
2022/09/04 03:06:19;;;;;;;12.90;11.70;;;13.60;99.90;;;14.39;89.48;98022.06;4968935;28;20457;-74
2022/09/04 03:08:53;;;;;;;11.47;10.50;;;13.60;99.90;;;14.38;89.49;98025.88;4955622;28;20548;-74
2022/09/04 03:11:30;;;;;;;12.00;10.90;;;13.50;99.90;;;14.31;89.55;98031.44;4969890;28;20468;-74
2022/09/04 03:14:04;;;;;;;12.83;11.63;;;13.50;99.90;;;14.22;89.09;98007.59;4972655;28;20932;-74
2022/09/04 03:16:39;;;;;;;11.90;10.73;;;13.50;99.90;;;14.37;88.42;98029.66;4977584;28;20915;-75
2022/09/04 03:19:15;;;;;;;11.03;10.13;;;13.40;99.90;;;14.31;89.23;98031.44;4981262;28;20480;-76
2022/09/04 03:21:50;;;;;;;10.40;9.40;;;13.40;99.90;;;14.35;88.83;98031.78;4988364;28;20547;-76
2022/09/04 03:24:25;;;;;;;11.20;10.20;;;13.30;99.90;;;14.19;88.38;98021.66;4974974;28;20756;-76
2022/09/04 03:26:56;;;;;;;11.93;10.73;;;13.20;99.90;;;14.16;88.64;98018.31;4973277;28;20561;-76
2022/09/04 03:29:34;;;;;;;13.57;12.27;;;13.20;99.90;;;14.07;90.10;98030.66;4956630;28;20697;-75
2022/09/04 03:32:11;;;;;;;11.67;10.57;;;13.20;99.90;;;14.14;89.59;98031.31;4977098;28;20492;-76
2022/09/04 03:34:48;;;;;;;11.60;10.67;;;13.20;99.90;;;14.20;89.27;98035.00;5002018;28;20459;-75
2022/09/04 03:37:45;;;;;;;11.37;10.20;;;13.20;99.90;;;14.14;89.25;98035.94;4995574;28;20440;-75
2022/09/04 03:40:26;;;;;;;11.47;10.50;;;13.20;99.90;;;14.10;89.82;98038.31;4981888;28;20519;-76
2022/09/04 03:43:20;;;;;;;11.10;10.00;;;13.20;99.90;;;14.02;90.25;98035.94;4955819;28;20775;-75
2022/09/04 03:46:01;;;;;;;10.90;9.90;;;13.20;99.90;;;13.76;91.21;98008.22;4987275;28;20551;-76
2022/09/04 03:48:48;;;;;;;10.90;9.90;;;13.20;99.90;;;14.04;90.35;98033.84;4973163;28;20476;-75
2022/09/04 03:51:26;;;;;;;10.67;9.83;;;13.20;99.90;;;13.97;91.11;98033.13;4973632;28;20449;-75
2022/09/04 03:54:04;;;;;;;9.90;9.00;;;13.20;99.90;;;14.01;90.17;98031.56;4955181;28;20454;-74
2022/09/04 03:57:01;;;;;;;9.50;8.60;;;13.20;99.90;;;14.25;90.45;98050.56;4973621;28;20452;-74
2022/09/04 03:59:53;;;;;;;9.40;8.60;;;13.20;99.90;;;14.41;90.35;98063.44;4968556;28;20451;-75
2022/09/04 04:02:37;;;;;;;9.17;8.47;;;13.40;99.90;;;14.73;91.25;98065.75;4972418;28;20508;-75
2022/09/04 04:05:41;;;;;;;9.30;8.50;;;13.60;99.90;;;14.64;88.74;98058.19;4973096;28;20841;-74
2022/09/04 04:08:34;;;;;;;9.03;8.23;;;13.60;99.90;;;14.52;88.05;98063.66;4936736;28;20484;-73
2022/09/04 04:11:29;;;;;;;10.07;9.20;;;13.60;99.90;;;14.19;90.19;98065.13;4992779;28;20982;-74
2022/09/04 04:14:38;;;;;;;9.97;9.17;;;13.50;99.90;;;14.16;89.81;98064.50;4969929;28;20464;-75
2022/09/04 04:17:30;;;;;;;9.00;8.30;;;13.40;99.90;;;14.27;89.01;98073.75;4968529;28;20465;-74
2022/09/04 04:20:15;;;;;;;9.13;8.47;;;13.40;99.90;;;14.17;89.03;98058.03;4983403;28;20453;-75
2022/09/04 04:23:00;;;;;;;7.67;7.03;;;13.40;99.90;;;14.51;90.04;98072.88;4971290;28;20980;-74
2022/09/04 04:25:49;;;;;;;9.30;8.50;;;13.50;99.90;;;13.59;88.55;97968.22;4953905;28;21110;-74
2022/09/04 04:28:57;;;;;;;8.53;7.83;;;13.50;99.90;;;14.13;89.29;98073.16;4980794;28;20499;-75
2022/09/04 04:31:43;;;;;;;8.07;7.47;;;13.40;99.90;;;14.10;89.37;98079.06;4966062;28;20510;-74
2022/09/04 04:34:21;;;;;;;9.30;8.50;;;13.30;99.90;;;14.19;89.16;98076.81;4954853;28;20964;-74
2022/09/04 04:36:55;;;;;;;10.33;8.23;;;13.30;99.90;;;14.05;89.12;98059.94;4971264;28;20515;-74
2022/09/04 04:39:34;;;;;;;9.07;8.27;;;13.30;99.90;;;14.26;89.19;98085.69;4971236;28;20806;-74
2022/09/04 04:42:17;;;;;;;9.90;9.03;;;13.30;99.90;;;14.27;89.11;98072.91;4971532;28;20478;-74
2022/09/04 04:48:09;;;;;;;9.97;9.10;;;13.40;99.90;;;14.29;89.32;98078.91;4971446;28;20464;-75
2022/09/04 04:50:48;;;;;;;8.80;8.10;;;13.40;99.90;;;14.34;88.89;98095.34;4958373;28;20929;-74
2022/09/04 04:53:26;;;;;;;9.80;8.80;;;13.50;99.90;;;14.40;88.28;98105.25;4970493;28;20452;-74
2022/09/04 04:56:00;;;;;;;8.03;7.43;;;13.60;99.90;;;14.90;88.19;98111.22;4969483;28;20461;-75
2022/09/04 04:58:44;;;;;;;9.10;8.40;;;13.80;99.90;;;15.09;86.88;98113.75;4962183;28;20472;-76
2022/09/04 05:01:25;;;;;;;7.90;7.30;;;14.20;99.90;;;15.32;84.95;98101.97;4973733;28;21343;-75
2022/09/04 05:04:05;;;;;;;7.63;7.03;;;14.60;99.90;;;15.72;83.15;98092.81;4971331;28;20452;-74
2022/09/04 05:06:39;;;;;;;6.90;6.40;;;15.00;99.90;;;15.72;82.25;98106.44;4971583;28;20496;-74
2022/09/04 05:09:16;;;;;;;6.80;6.30;;;15.20;99.90;;;15.63;82.09;98112.53;4971487;28;20472;-75
2022/09/04 05:11:55;;;;;;;7.10;6.53;;;15.30;98.40;;;15.55;82.48;98100.16;4971688;28;20507;-75
2022/09/04 05:14:39;;;;;;;6.73;6.17;;;15.30;98.40;;;15.38;82.70;98111.84;4965153;28;20487;-75
2022/09/04 05:17:19;;;;;;;7.80;7.20;;;15.00;99.40;;;15.04;84.23;98113.66;4972138;28;20489;-75
2022/09/04 05:19:53;;;;;;;6.67;6.17;;;14.60;99.90;;;14.97;85.01;98128.25;4972023;28;20948;-75
2022/09/04 05:22:29;;;;;;;7.57;6.97;;;14.40;99.90;;;14.96;84.79;98134.75;4986650;28;20473;-74
2022/09/04 05:25:09;;;;;;;7.87;7.17;;;14.20;99.90;;;15.04;84.88;98135.41;4992121;28;20486;-75
2022/09/04 05:27:48;;;;;;;5.97;5.50;;;14.30;99.90;;;15.65;84.08;98140.34;4962915;28;20484;-74
2022/09/04 05:30:23;;;;;;;7.30;6.70;;;14.70;99.90;;;15.38;83.18;98130.06;4962155;28;20469;-77
2022/09/04 05:32:58;;;;;;;7.90;7.20;;;14.70;99.90;;;15.20;84.34;98147.44;4957951;28;20461;-76
2022/09/04 05:35:38;;;;;;;7.60;7.00;;;14.60;99.90;;;15.04;85.23;98149.03;4946071;28;20552;-75
2022/09/04 05:38:13;;;;;;;7.30;6.60;;;14.50;99.90;;;15.23;84.69;98149.66;4960928;28;20507;-78
2022/09/04 05:41:03;;;;;;;7.70;7.00;;;14.50;99.90;;;15.01;85.43;98159.31;4960376;28;21028;-77
2022/09/04 05:43:50;;;;;;;8.40;7.57;;;14.40;99.90;;;14.68;85.24;98095.53;4965610;28;20468;-76
2022/09/04 05:46:40;;;;;;;8.50;7.80;;;14.40;99.90;;;15.14;85.55;98165.56;4958623;28;20967;-77
2022/09/04 05:49:31;;;;;;;8.57;7.87;;;14.50;99.90;;;15.08;85.98;98170.06;4962373;28;20487;-75
2022/09/04 05:52:27;;;;;;;7.60;7.00;;;14.50;99.90;;;15.02;85.72;98173.78;4964535;28;20866;-75
2022/09/04 05:55:53;;;;;;;9.03;7.57;;;14.50;99.90;;;15.21;85.10;98187.19;4962769;28;21360;-77
2022/09/04 05:58:47;;;;;;;7.67;6.97;;;14.50;99.90;;;15.18;84.17;98171.34;4949925;28;20941;-77
2022/09/04 06:01:38;;;;;;;8.53;7.63;;;14.50;99.90;;;15.35;84.00;98182.28;4959876;28;20548;-77
2022/09/04 06:04:30;;;;;;;8.10;7.40;;;14.50;99.90;;;15.36;83.98;98186.66;4949885;28;20543;-78
2022/09/04 06:07:10;;;;;;;7.70;7.10;;;14.50;99.90;;;15.31;83.91;98190.09;4955264;28;20475;-80
2022/09/04 06:09:58;;;;;;;8.63;7.93;;;14.50;99.90;;;15.27;84.11;98189.78;4965456;28;20467;-79
2022/09/04 06:13:23;;;;;;;8.13;7.43;;;14.50;99.90;;;15.36;83.98;98198.38;4969671;28;20473;-80
2022/09/04 06:16:08;;;;;;;9.00;8.23;;;14.50;99.90;;;15.29;84.66;98198.53;4929505;28;20577;-78
2022/09/04 06:19:18;;;;;;;8.50;7.70;;;14.50;99.90;;;15.47;83.84;98199.41;4945097;28;20509;-82
2022/09/04 06:22:36;;;;;;;9.23;8.43;;;14.60;99.90;;;15.52;83.25;98185.88;4961285;28;20476;-82
2022/09/04 06:25:44;;;;;;;8.00;7.40;;;14.80;99.90;;;15.65;83.72;98192.09;4936945;28;20973;-76
2022/09/04 06:28:47;;;;;;;9.40;8.67;;;14.80;99.90;;;15.75;83.17;98200.47;4955260;28;20485;-77
2022/09/04 06:31:48;;;;;;;9.13;8.40;;;14.90;99.90;;;16.06;82.46;98190.13;4960401;28;20506;-79
2022/09/04 06:34:31;;;;;;;8.87;8.17;;;15.00;99.90;;;16.22;81.65;98199.38;4955547;28;20500;-77
2022/09/04 06:37:11;;;;;;;10.57;9.67;;;15.20;99.90;;;16.52;80.33;98203.63;4949987;28;20907;-75
2022/09/04 06:40:02;;;;;;;9.40;8.60;;;15.30;99.90;;;16.66;79.46;98203.28;4955685;28;20552;-74
2022/09/04 06:42:56;;;;;;;8.83;8.07;;;15.50;99.90;;;16.74;79.29;98210.22;4954126;28;20473;-78
2022/09/04 06:45:39;;;;;;;9.40;8.57;;;15.60;99.90;;;16.43;80.61;98214.16;4961139;28;20462;-77
2022/09/04 06:48:18;;;;;;;8.43;7.73;;;15.50;99.80;;;16.62;79.62;98213.91;4941297;28;21084;-78
2022/09/04 06:50:58;;;;;;;9.37;8.67;;;15.60;99.90;;;16.97;78.72;98215.47;4962204;28;20456;-77
2022/09/04 06:53:41;;;;;;;8.20;7.50;;;15.80;99.60;;;17.02;78.24;98217.47;4962189;28;20459;-77
2022/09/04 06:56:29;;;;;;;8.70;7.80;;;15.90;98.50;;;17.03;77.95;98223.75;4960394;28;20485;-77
2022/09/04 06:59:46;;;;;;;8.40;7.70;;;16.00;97.60;;;17.36;77.23;98222.81;4956643;28;20568;-77
2022/09/04 07:02:28;;;;;;;8.80;8.10;;;16.20;97.30;;;17.66;76.13;98228.84;4936378;28;20459;-76
2022/09/04 07:05:10;;;;;;;8.90;8.10;;;16.40;96.80;;;17.59;75.59;98236.44;4957642;28;20477;-77
2022/09/04 07:07:48;;;;;;;9.03;8.13;;;16.50;95.50;;;17.05;77.66;98233.34;4957679;28;20471;-77
2022/09/04 07:10:18;;;;;;;9.20;8.50;;;16.30;95.70;;;17.39;76.92;98237.88;4963711;28;20970;-76
2022/09/04 07:13:22;;;;;;;9.50;8.70;;;16.40;95.80;;;17.28;77.73;98242.34;4946733;28;21040;-76
2022/09/04 07:16:18;;;;;;;10.03;9.13;;;16.40;96.10;;;17.69;76.18;98248.31;4962817;28;21224;-77
2022/09/04 07:19:07;;;;;;;9.10;8.40;;;16.60;95.80;;;17.71;76.01;98256.25;4960413;28;20495;-75
2022/09/04 07:21:44;;;;;;;8.67;7.97;;;16.80;94.50;;;17.68;76.07;98257.59;4955500;28;20558;-75
2022/09/04 07:24:48;;;;;;;9.73;8.93;;;17.00;94.20;;;17.66;76.63;98256.19;4962246;28;20819;-77
2022/09/04 07:27:24;;;;;;;10.00;9.10;;;16.90;94.60;;;17.83;75.87;98253.38;4961196;28;21047;-77
2022/09/04 07:30:00;;;;;;;9.20;8.30;;;17.10;94.30;;;18.27;75.06;98252.44;4969684;28;20961;-76
2022/09/04 07:32:36;;;;;;;9.30;8.60;;;17.20;94.60;;;18.74;73.10;98255.56;4948826;28;20823;-77
2022/09/04 07:35:10;;;;;;;8.90;8.20;;;17.60;93.30;;;18.88;72.26;98255.91;4949287;28;20473;-77
2022/09/04 07:37:46;;;;;;;9.60;8.60;;;17.70;92.50;;;18.80;73.04;98259.97;4966726;28;20453;-78
2022/09/04 07:40:19;;;;;;;9.93;8.57;;;17.90;92.30;;;19.37;70.65;98263.03;4944886;28;20473;-77
2022/09/04 07:42:53;;;;;;;8.03;7.40;;;18.10;91.90;;;19.71;69.95;98267.25;4969471;28;20518;-78
2022/09/04 07:45:31;;;;;;;9.07;8.27;;;18.40;91.40;;;20.07;68.19;98273.69;4959808;28;20468;-79
2022/09/04 07:48:20;;;;;;;8.77;7.87;;;18.80;90.80;;;20.19;67.83;98278.09;4960416;28;20468;-77
2022/09/04 07:51:10;;;;;;;8.33;7.50;;;19.00;90.10;;;20.77;66.68;98269.56;4972954;28;20471;-78
2022/09/04 07:54:17;;;;;;;8.60;7.80;;;19.30;90.20;;;20.90;65.11;98281.97;4971294;28;20470;-75
2022/09/04 07:57:31;;;;;;;8.20;7.37;;;19.80;88.40;;;20.64;65.36;98289.38;4968011;28;20460;-74
2022/09/04 08:00:06;;;;;;;7.70;7.00;;;19.90;87.40;;;20.23;66.73;98284.66;4971895;28;20458;-75
2022/09/04 08:02:55;;;;;;;7.00;6.50;;;19.60;87.70;;;20.74;65.76;98288.53;4973248;28;20465;-78
2022/09/04 08:05:30;;;;;;;8.63;7.83;;;19.60;88.40;;;20.57;66.00;98300.63;4967267;28;20519;-77
2022/09/04 08:08:37;;;;;;;8.10;7.50;;;19.60;87.90;;;20.43;66.36;98305.00;4964003;28;21005;-76
2022/09/04 08:11:51;;;;;;;8.17;7.37;;;19.60;88.20;;;20.62;66.34;98308.00;4971050;28;20569;-78
2022/09/04 08:14:28;;;;;;;8.63;7.90;;;19.60;88.30;;;20.97;65.43;98300.06;4963266;28;20511;-78
2022/09/04 08:17:47;;;;;;;7.83;7.13;;;19.80;87.80;;;21.18;64.66;98304.44;4963612;28;20555;-77
2022/09/04 08:20:50;;;;;;;8.30;7.60;;;20.00;87.40;;;21.73;63.00;98303.69;4929104;28;20487;-78
2022/09/04 08:23:48;;;;;;;7.23;6.40;;;20.30;87.30;;;22.58;60.08;98311.19;4959785;28;20828;-78
2022/09/04 08:26:31;;;;;;;7.23;6.63;;;21.00;85.90;;;22.18;60.66;98308.41;4937193;28;20520;-76
2022/09/04 08:29:32;;;;;;;6.77;6.17;;;21.10;84.90;;;22.27;59.72;98309.47;4960958;28;20577;-78
2022/09/04 08:32:15;;;;;;;7.47;6.60;;;21.10;85.10;;;22.47;58.59;98289.25;4954919;28;20465;-78
2022/09/04 08:35:10;;;;;;;7.30;6.70;;;21.50;83.80;;;22.46;59.25;98308.78;4963089;28;20511;-77
2022/09/04 08:37:53;;;;;;;6.77;6.23;;;21.80;83.70;;;22.43;59.63;98309.34;4942798;28;20554;-77
2022/09/04 08:41:07;;;;;;;6.57;6.00;;;21.50;83.60;;;22.59;58.74;98310.91;4958689;28;20520;-77
2022/09/04 08:44:10;;;;;;;7.80;6.30;;;21.60;83.20;;;21.33;62.94;98317.28;4944317;28;20494;-76
2022/09/04 08:47:23;;;;;;;6.20;5.60;;;21.00;83.80;;;21.79;62.08;98310.84;4950423;28;20472;-76
2022/09/04 08:50:26;;;;;;;6.10;5.60;;;20.70;84.80;;;21.61;62.37;98316.91;4965098;28;20516;-75
2022/09/04 08:53:25;;;;;;;6.90;6.30;;;20.80;84.80;;;21.59;63.23;98319.97;4961470;28;20651;-78
2022/09/04 08:56:06;;;;;;;6.50;5.90;;;20.60;85.20;;;21.56;62.52;98314.19;4960476;28;20464;-80
2022/09/04 08:59:29;;;;;;;6.33;5.83;;;20.50;85.30;;;21.37;63.01;98312.06;4958641;28;20474;-75
2022/09/04 09:02:53;;;;;;;5.73;5.33;;;20.50;85.10;;;21.59;63.14;98313.63;4960614;28;20458;-76
2022/09/04 09:05:59;;;;;;;6.27;5.77;;;20.40;85.70;;;21.41;63.23;98313.16;4962964;28;20545;-76
2022/09/04 09:09:17;;;;;;;6.20;5.70;;;20.40;85.50;;;20.77;65.07;98320.94;4959883;28;20482;-78
2022/09/04 09:12:45;;;;;;;5.83;5.33;;;20.20;85.50;;;20.97;64.51;98309.13;4965462;28;20474;-79
2022/09/04 09:15:47;;;;;;;5.13;4.73;;;20.00;86.00;;;21.36;63.76;98308.47;4946600;28;20493;-80
2022/09/04 09:18:36;;;;;;;6.67;4.30;;;20.10;86.20;;;21.60;62.21;98312.53;4961825;28;20509;-79
2022/09/04 09:21:09;;;;;;;4.50;4.20;;;20.30;85.30;;;21.63;61.66;98309.25;4959304;28;20463;-76
2022/09/04 09:24:11;;;;;;;4.87;4.37;;;20.50;85.10;;;21.19;61.95;98308.81;4957573;28;20476;-79
2022/09/04 09:26:51;;;;;;;4.47;4.00;;;20.40;84.90;;;20.59;63.32;98265.50;4962793;28;20473;-76
2022/09/04 09:29:59;;;;;;;3.83;3.53;;;20.20;84.90;;;21.11;62.87;98314.88;4960183;28;20490;-81
2022/09/04 09:33:28;;;;;;;3.60;3.30;;;20.10;84.80;;;21.45;61.84;98308.72;4956864;28;20474;-78
2022/09/04 09:36:19;;;;;;;4.23;3.83;;;20.20;84.70;;;21.78;60.40;98314.69;4956639;28;20525;-76
2022/09/04 09:39:32;;;;;;;4.17;3.77;;;20.40;84.20;;;21.90;59.47;98316.28;4959454;28;20462;-80
2022/09/04 09:42:50;;;;;;;4.00;3.67;;;20.60;83.50;;;22.06;59.48;98317.84;4986132;28;20448;-80
2022/09/04 09:45:37;;;;;;;4.10;3.70;;;20.80;83.60;;;21.96;58.96;98265.66;4974764;28;20456;-82
2022/09/04 09:48:47;;;;;;;3.53;3.23;;;20.90;83.50;;;22.67;58.10;98308.63;4971253;28;20503;-82
2022/09/04 09:52:07;;;;;;;4.27;3.87;;;21.20;83.50;;;22.60;58.14;98315.31;4972875;28;20471;-80
2022/09/04 09:55:09;;;;;;;3.90;3.60;;;21.40;83.00;;;22.75;57.87;98308.88;4978731;28;21017;-81
2022/09/04 09:58:33;;;;;;;4.20;3.63;;;21.50;82.50;;;22.87;56.98;98302.13;4965013;28;20491;-81
2022/09/04 10:01:21;;;;;;;4.23;3.93;;;21.60;82.00;;;22.82;57.18;98308.50;4956645;28;20475;-83
2022/09/04 10:04:46;;;;;;;3.80;3.50;;;21.60;81.90;;;22.98;56.44;98309.19;4969015;28;20454;-84
2022/09/04 10:07:53;;;;;;;3.60;3.30;;;21.70;81.50;;;23.07;56.51;98303.88;4968334;28;20470;-84
2022/09/04 10:10:50;;;;;;;3.60;2.90;;;21.80;81.10;;;23.31;55.82;98308.63;4976733;28;20542;-83
2022/09/04 10:13:49;;;;;;;3.50;3.00;;;21.90;81.30;;;23.43;54.94;98297.19;4975405;28;20465;-80
2022/09/04 10:16:59;;;;;;;3.20;2.97;;;22.00;80.80;;;23.51;54.03;98302.06;4969267;28;20556;-83
2022/09/04 10:20:02;;;;;;;3.10;2.90;;;22.20;80.40;;;22.97;55.01;98301.19;4961259;28;20477;-82
2022/09/04 10:23:06;;;;;;;3.03;2.83;;;22.20;79.10;;;23.13;55.08;98299.97;4980119;28;20968;-82
2022/09/04 10:26:19;;;;;;;3.17;2.97;;;22.00;79.60;;;23.21;54.03;98307.56;4983097;28;20457;-78
2022/09/04 10:29:35;;;;;;;3.23;2.93;;;22.10;78.90;;;23.23;53.90;98292.69;4930519;29;20487;-80
2022/09/04 10:32:34;;;;;;;3.93;3.53;;;22.20;78.50;;;23.18;54.58;98302.66;4971801;28;20455;-82
2022/09/04 10:35:24;;;;;;;5.97;3.53;;;22.20;78.40;;;23.28;54.49;98296.25;4954906;28;20451;-82
2022/09/04 10:38:05;;;;;;;3.43;3.17;;;22.20;78.70;;;23.31;54.50;98295.66;4979324;28;20465;-82
2022/09/04 10:40:45;;;;;;;3.50;3.20;;;22.20;78.70;;;23.35;53.32;98301.41;4988396;28;20531;-80
2022/09/04 10:43:38;;;;;;;3.07;2.87;;;22.20;78.00;;;23.69;52.36;98283.88;4984797;28;20478;-82
2022/09/04 10:46:11;;;;;;;3.00;2.80;;;22.30;77.60;;;23.78;51.55;98292.31;4969846;28;20865;-83
2022/09/04 10:49:18;;;;;;;3.23;3.03;;;22.50;76.90;;;24.16;50.73;98288.78;4975317;28;20504;-80
2022/09/04 10:52:34;;;;;;;2.80;2.60;;;22.70;76.80;;;24.60;49.60;98290.31;4954427;28;20467;-84
2022/09/04 10:55:30;;;;;;;3.30;3.00;;;23.00;76.20;;;24.51;49.72;98297.66;4990768;28;21063;-83
2022/09/04 10:58:19;;;;;;;3.00;2.70;;;23.30;75.50;;;24.15;50.23;98288.00;4998965;28;20479;-77
2022/09/04 11:01:13;;;;;;;3.03;2.83;;;23.20;75.20;;;23.76;51.67;98284.38;4985650;28;20518;-84
2022/09/04 11:04:26;;;;;;;2.70;2.50;;;23.00;75.00;;;24.28;50.79;98289.16;4962931;28;20453;-82
2022/09/04 11:07:27;;;;;;;3.37;3.07;;;22.90;75.60;;;24.42;50.31;98280.13;4958076;28;20461;-82
2022/09/04 11:10:40;;;;;;;2.90;2.70;;;23.20;75.00;;;24.49;50.82;98286.06;4992746;28;20470;-83
2022/09/04 11:14:05;;;;;;;3.20;2.90;;;23.20;75.40;;;24.27;50.82;98279.25;4977333;28;20463;-80
2022/09/04 11:17:04;;;;;;;3.03;2.70;;;23.10;75.10;;;24.39;51.20;98284.31;4962055;28;20466;-83
2022/09/04 11:20:22;;;;;;;3.20;2.40;;;23.10;75.10;;;24.54;50.56;98279.66;4961009;28;20464;-83
2022/09/04 11:23:53;;;;;;;2.30;2.20;;;23.30;75.10;;;24.32;49.61;98272.84;4963720;28;20458;-84
2022/09/04 11:27:38;;;;;;;3.00;2.10;;;23.40;73.70;;;24.25;49.46;98281.50;4966676;28;20488;-82
2022/09/04 11:30:17;;;;;;;2.23;1.97;;;23.20;73.10;;;24.43;49.90;98281.78;4886055;28;21221;-83
2022/09/04 11:33:32;;;;;;;2.80;2.30;;;23.20;73.70;;;24.52;48.51;98288.25;4958743;28;20518;-87
2022/09/04 11:37:07;;;;;;;2.43;2.20;;;23.30;72.30;;;24.57;47.81;98288.16;4985169;28;20567;-83
2022/09/04 11:40:23;;;;;;;2.33;2.13;;;23.40;71.50;;;24.31;48.71;98283.03;4882621;29;20469;-79
2022/09/04 11:43:12;;;;;;;2.00;1.90;;;23.30;71.90;;;24.25;48.15;98278.72;4964946;28;20554;-84
2022/09/04 11:46:01;;;;;;;2.57;2.00;;;23.10;71.60;;;24.46;48.53;98283.91;4985249;28;20464;-84
2022/09/04 11:49:12;;;;;;;2.37;2.17;;;23.20;71.80;;;24.61;48.24;98278.16;4957378;28;20808;-83
2022/09/04 11:52:03;;;;;;;4.50;2.40;;;23.40;71.70;;;25.03;47.28;98286.56;4968514;28;20531;-82